Stolt Effort — ZCSP6 — position and weather

sailwx.info

Track history (hours):
 
Tides and Currents Weather Stations Pressure Air Temp Water Temp Dewpoint Dewpoint Depression Visibility Wind Speed Wind Dir Waves Ship Positions

Stolt Effort

Last reported at 2017-Aug-30 12:42 UTC. Time now 2017-Sep-26 16:43 UTC.
Position N 34°43' E 139°46'.
Warning: this ship's position is 27 days out of date.

Length 176 m; draft 10.8 m.

Type: Ship. MMSI: 319445000.

Date/timePositionNaut miles runAvg speedWind from/ knotsBaromVisibWave heightAir tempDewpointWater temp
2017-Aug-30 12:42N 34°43' E 139°46'313.4
2017-Aug-30 12:30N 34°45' E 139°44'813.3
2017-Aug-30 11:55N 34°53' E 139°40'613.6
2017-Aug-30 11:30N 34°58' E 139°40'612.9
2017-Aug-30 11:00N 35°04' E 139°43'713.2
2017-Aug-30 10:31N 35°11' E 139°46'510.9
2017-Aug-30 10:01N 35°16' E 139°46'611.9
2017-Aug-30 09:31N 35°21' E 139°42'2 3.1
2017-Aug-30 08:59N 35°23' E 139°41'0 0.1
2017-Aug-30 08:29N 35°23' E 139°41'0 0.0
2017-Aug-30 07:59N 35°23' E 139°41'0 0.0
2017-Aug-30 07:29N 35°23' E 139°41'0 0.0
2017-Aug-30 06:59N 35°23' E 139°41'0 0.0
2017-Aug-30 06:29N 35°23' E 139°41'0 0.0
2017-Aug-30 05:59N 35°23' E 139°41'0 0.0
2017-Aug-30 05:29N 35°23' E 139°41'0 0.1
2017-Aug-30 04:59N 35°23' E 139°41'0 0.1
2017-Aug-30 04:29N 35°23' E 139°41'0 0.0
2017-Aug-30 03:59N 35°23' E 139°41'0 0.0
2017-Aug-30 03:29N 35°23' E 139°41'0 0.1
2017-Aug-30 02:59N 35°23' E 139°41'0 0.0
2017-Aug-30 02:29N 35°23' E 139°41'0 0.0
2017-Aug-30 01:59N 35°23' E 139°41'0 0.1
2017-Aug-30 01:29N 35°23' E 139°41'0 0.0
2017-Aug-30 00:59N 35°23' E 139°41'0 0.1
2017-Aug-30 00:29N 35°23' E 139°41'0 0.1
2017-Aug-29 23:59N 35°23' E 139°41'0 0.0
2017-Aug-29 23:29N 35°23' E 139°41'0 0.0
2017-Aug-29 22:59N 35°23' E 139°41'0 0.0
2017-Aug-29 22:29N 35°23' E 139°41'0 0.0
2017-Aug-29 21:59N 35°23' E 139°41'0 0.0
2017-Aug-29 21:29N 35°23' E 139°41'0 0.1
2017-Aug-29 20:59N 35°23' E 139°41'0 0.1
2017-Aug-29 20:29N 35°23' E 139°41'0 0.0
2017-Aug-29 19:56N 35°23' E 139°41'0 0.1
2017-Aug-29 19:29N 35°23' E 139°41'0 0.0
2017-Aug-29 18:56N 35°23' E 139°41'0 0.0
2017-Aug-29 18:29N 35°23' E 139°41'0 0.0
2017-Aug-29 17:59N 35°23' E 139°41'0 0.0
2017-Aug-29 17:29N 35°23' E 139°41'0 0.0
2017-Aug-29 16:59N 35°23' E 139°41'0 0.0
2017-Aug-29 16:29N 35°23' E 139°41'0 0.0
2017-Aug-29 15:59N 35°23' E 139°41'0 0.0
2017-Aug-29 15:29N 35°23' E 139°41'0 0.0
2017-Aug-29 14:59N 35°23' E 139°41'0 0.0
2017-Aug-29 14:29N 35°23' E 139°41'0 0.0
2017-Aug-29 13:59N 35°23' E 139°41'0 0.0
2017-Aug-29 13:29N 35°23' E 139°41'0 0.0
2017-Aug-29 12:59N 35°23' E 139°41'0 0.0
2017-Aug-29 12:29N 35°23' E 139°41'0 0.0
2017-Aug-29 11:59N 35°23' E 139°41'0 0.0
2017-Aug-29 11:29N 35°23' E 139°41'0 0.0
2017-Aug-29 10:59N 35°23' E 139°41'0 0.0
2017-Aug-29 10:29N 35°23' E 139°41'0 0.0
2017-Aug-29 09:53N 35°23' E 139°41'0 0.0
2017-Aug-29 09:29N 35°23' E 139°41'0 0.0
2017-Aug-29 08:59N 35°23' E 139°41'0 0.0
2017-Aug-29 08:29N 35°23' E 139°41'0 0.4
2017-Aug-29 07:56N 35°22' E 139°41'1 2.0
2017-Aug-29 07:30N 35°22' E 139°42'510.4
2017-Aug-29 07:00N 35°17' E 139°45'612.4
2017-Aug-29 06:30N 35°11' E 139°47'4 7.9
2017-Aug-29 06:00N 35°07' E 139°46'4 8.9
2017-Aug-29 05:30N 35°03' E 139°44'612.0
2017-Aug-29 05:00N 34°59' E 139°39'1213.9
2017-Aug-29 04:09N 34°53' E 139°27'316.6
2017-Aug-29 03:58N 34°52' E 139°23'  
Track history (hours):
 
Tides and Currents Weather Stations Pressure Air Temp Water Temp Dewpoint Dewpoint Depression Visibility Wind Speed Wind Dir Waves Ship Positions

Stolt Effort

Last reported at 2017-Aug-30 12:42 UTC. Time now 2017-Sep-26 16:43 UTC.
Position N 34°43' E 139°46'.
Warning: this ship's position is 27 days out of date.

Length 176 m; draft 10.8 m.

Type: Ship. MMSI: 319445000.

Date/timePositionNaut miles runAvg speedWind from/ knotsBaromVisibWave heightAir tempDewpointWater temp
2017-Aug-30 12:42N 34°43' E 139°46'313.4
2017-Aug-30 12:30N 34°45' E 139°44'813.3
2017-Aug-30 11:55N 34°53' E 139°40'613.6
2017-Aug-30 11:30N 34°58' E 139°40'612.9
2017-Aug-30 11:00N 35°04' E 139°43'713.2
2017-Aug-30 10:31N 35°11' E 139°46'510.9
2017-Aug-30 10:01N 35°16' E 139°46'611.9
2017-Aug-30 09:31N 35°21' E 139°42'2 3.1
2017-Aug-30 08:59N 35°23' E 139°41'0 0.1
2017-Aug-30 08:29N 35°23' E 139°41'0 0.0
2017-Aug-30 07:59N 35°23' E 139°41'0 0.0
2017-Aug-30 07:29N 35°23' E 139°41'0 0.0
2017-Aug-30 06:59N 35°23' E 139°41'0 0.0
2017-Aug-30 06:29N 35°23' E 139°41'0 0.0
2017-Aug-30 05:59N 35°23' E 139°41'0 0.0
2017-Aug-30 05:29N 35°23' E 139°41'0 0.1
2017-Aug-30 04:59N 35°23' E 139°41'0 0.1
2017-Aug-30 04:29N 35°23' E 139°41'0 0.0
2017-Aug-30 03:59N 35°23' E 139°41'0 0.0
2017-Aug-30 03:29N 35°23' E 139°41'0 0.1
2017-Aug-30 02:59N 35°23' E 139°41'0 0.0
2017-Aug-30 02:29N 35°23' E 139°41'0 0.0
2017-Aug-30 01:59N 35°23' E 139°41'0 0.1
2017-Aug-30 01:29N 35°23' E 139°41'0 0.0
2017-Aug-30 00:59N 35°23' E 139°41'0 0.1
2017-Aug-30 00:29N 35°23' E 139°41'0 0.1
2017-Aug-29 23:59N 35°23' E 139°41'0 0.0
2017-Aug-29 23:29N 35°23' E 139°41'0 0.0
2017-Aug-29 22:59N 35°23' E 139°41'0 0.0
2017-Aug-29 22:29N 35°23' E 139°41'0 0.0
2017-Aug-29 21:59N 35°23' E 139°41'0 0.0
2017-Aug-29 21:29N 35°23' E 139°41'0 0.1
2017-Aug-29 20:59N 35°23' E 139°41'0 0.1
2017-Aug-29 20:29N 35°23' E 139°41'0 0.0
2017-Aug-29 19:56N 35°23' E 139°41'0 0.1
2017-Aug-29 19:29N 35°23' E 139°41'0 0.0
2017-Aug-29 18:56N 35°23' E 139°41'0 0.0
2017-Aug-29 18:29N 35°23' E 139°41'0 0.0
2017-Aug-29 17:59N 35°23' E 139°41'0 0.0
2017-Aug-29 17:29N 35°23' E 139°41'0 0.0
2017-Aug-29 16:59N 35°23' E 139°41'0 0.0
2017-Aug-29 16:29N 35°23' E 139°41'0 0.0
2017-Aug-29 15:59N 35°23' E 139°41'0 0.0
2017-Aug-29 15:29N 35°23' E 139°41'0 0.0
2017-Aug-29 14:59N 35°23' E 139°41'0 0.0
2017-Aug-29 14:29N 35°23' E 139°41'0 0.0
2017-Aug-29 13:59N 35°23' E 139°41'0 0.0
2017-Aug-29 13:29N 35°23' E 139°41'0 0.0
2017-Aug-29 12:59N 35°23' E 139°41'0 0.0
2017-Aug-29 12:29N 35°23' E 139°41'0 0.0
2017-Aug-29 11:59N 35°23' E 139°41'0 0.0
2017-Aug-29 11:29N 35°23' E 139°41'0 0.0
2017-Aug-29 10:59N 35°23' E 139°41'0 0.0
2017-Aug-29 10:29N 35°23' E 139°41'0 0.0
2017-Aug-29 09:53N 35°23' E 139°41'0 0.0
2017-Aug-29 09:29N 35°23' E 139°41'0 0.0
2017-Aug-29 08:59N 35°23' E 139°41'0 0.0
2017-Aug-29 08:29N 35°23' E 139°41'0 0.4
2017-Aug-29 07:56N 35°22' E 139°41'1 2.0
2017-Aug-29 07:30N 35°22' E 139°42'510.4
2017-Aug-29 07:00N 35°17' E 139°45'612.4
2017-Aug-29 06:30N 35°11' E 139°47'4 7.9
2017-Aug-29 06:00N 35°07' E 139°46'4 8.9
2017-Aug-29 05:30N 35°03' E 139°44'612.0
2017-Aug-29 05:00N 34°59' E 139°39'1213.9
2017-Aug-29 04:09N 34°53' E 139°27'316.6
2017-Aug-29 03:58N 34°52' E 139°23'  

Dump ship's entire track history